Time,TemperatureF,DewpointF,PressureIn,WindDirection,WindDirectionDegrees,WindSpeedMPH,WindSpeedGustMPH,Humidity,HourlyPrecipIn,Conditions,Clouds,dailyrainin,SolarRadiationWatts/m^2,SoftwareType,DateUTC
2013-04-20 00:21:00,34.0,23.0,-100.00,South,183,3.0,7.0,63,0.00,,,0.00,1.000000,,2013-04-20 06:21:00,
2013-04-20 00:32:00,34.0,23.0,-100.00,South,183,3.0,7.0,63,0.00,,,0.00,1.000000,,2013-04-20 06:32:00,
2013-04-20 00:42:00,34.0,23.0,-100.00,South,183,3.0,7.0,63,0.00,,,0.00,1.000000,,2013-04-20 06:42:00,
2013-04-20 00:52:00,34.0,23.0,-100.00,South,183,3.0,7.0,63,0.00,,,0.00,1.000000,,2013-04-20 06:52:00,
2013-04-20 01:21:00,33.0,23.0,-100.00,ENE,60,2.0,6.0,67,0.00,,,0.00,1.000000,,2013-04-20 07:21:00,
2013-04-20 01:32:00,33.0,23.0,-100.00,ENE,60,2.0,6.0,67,0.00,,,0.00,1.000000,,2013-04-20 07:32:00,
2013-04-20 01:42:00,33.0,23.0,-100.00,ENE,60,2.0,6.0,67,0.00,,,0.00,1.000000,,2013-04-20 07:42:00,
2013-04-20 01:52:00,33.0,23.0,-100.00,ENE,60,2.0,6.0,67,0.00,,,0.00,1.000000,,2013-04-20 07:52:00,
2013-04-20 02:21:00,30.0,24.0,-100.00,ESE,123,2.0,5.0,79,0.00,,,0.00,1.000000,,2013-04-20 08:21:00,
2013-04-20 02:31:00,30.0,24.0,-100.00,ESE,123,2.0,5.0,79,0.00,,,0.00,1.000000,,2013-04-20 08:31:00,
2013-04-20 02:42:00,30.0,24.0,-100.00,ESE,123,2.0,5.0,79,0.00,,,0.00,1.000000,,2013-04-20 08:42:00,
2013-04-20 02:51:00,30.0,24.0,-100.00,ESE,123,2.0,5.0,79,0.00,,,0.00,1.000000,,2013-04-20 08:51:00,
2013-04-20 03:21:00,29.0,24.0,-100.00,NE,54,4.0,7.0,80,0.00,,,0.00,1.000000,,2013-04-20 09:21:00,
2013-04-20 03:32:00,29.0,24.0,-100.00,NE,54,4.0,7.0,80,0.00,,,0.00,1.000000,,2013-04-20 09:32:00,
2013-04-20 03:43:00,29.0,24.0,-100.00,NE,54,4.0,7.0,80,0.00,,,0.00,1.000000,,2013-04-20 09:43:00,
2013-04-20 03:52:00,29.0,24.0,-100.00,NE,54,4.0,7.0,80,0.00,,,0.00,1.000000,,2013-04-20 09:52:00,
2013-04-20 04:23:00,27.0,23.0,-100.00,NE,49,2.0,5.0,83,0.00,,,0.00,1.000000,,2013-04-20 10:23:00,
2013-04-20 04:33:00,27.0,23.0,-100.00,NE,49,2.0,5.0,83,0.00,,,0.00,1.000000,,2013-04-20 10:33:00,
2013-04-20 04:42:00,27.0,23.0,-100.00,NE,49,2.0,5.0,83,0.00,,,0.00,1.000000,,2013-04-20 10:42:00,
2013-04-20 04:52:00,27.0,23.0,-100.00,NE,49,2.0,5.0,83,0.00,,,0.00,1.000000,,2013-04-20 10:52:00,
2013-04-20 05:23:00,28.0,23.0,-100.00,East,93,1.0,4.0,80,0.00,,,0.00,1.000000,,2013-04-20 11:23:00,
2013-04-20 05:32:00,28.0,23.0,-100.00,East,93,1.0,4.0,80,0.00,,,0.00,1.000000,,2013-04-20 11:32:00,
2013-04-20 05:42:00,28.0,23.0,-100.00,East,93,1.0,4.0,80,0.00,,,0.00,1.000000,,2013-04-20 11:42:00,
2013-04-20 05:52:00,28.0,23.0,-100.00,East,93,1.0,4.0,80,0.00,,,0.00,1.000000,,2013-04-20 11:52:00,
2013-04-20 06:22:00,28.0,22.0,-100.00,NE,49,1.0,3.0,78,0.00,,,0.00,1.000000,,2013-04-20 12:22:00,
2013-04-20 06:32:00,28.0,22.0,-100.00,NE,49,1.0,3.0,78,0.00,,,0.00,1.000000,,2013-04-20 12:32:00,
2013-04-20 06:42:00,28.0,22.0,-100.00,NE,49,1.0,3.0,78,0.00,,,0.00,1.000000,,2013-04-20 12:42:00,
2013-04-20 06:51:00,28.0,22.0,-100.00,NE,49,1.0,3.0,78,0.00,,,0.00,1.000000,,2013-04-20 12:51:00,
2013-04-20 07:21:00,29.0,22.0,-100.00,ENE,76,2.0,4.0,75,0.00,,,-99.99,3.000000,,2013-04-20 13:21:00,
2013-04-20 07:31:00,29.0,22.0,-100.00,ENE,76,2.0,4.0,75,0.00,,,-99.99,3.000000,,2013-04-20 13:31:00,
2013-04-20 07:42:00,29.0,22.0,-100.00,ENE,76,2.0,4.0,75,0.00,,,-99.99,3.000000,,2013-04-20 13:42:00,
2013-04-20 07:52:00,29.0,22.0,-100.00,ENE,76,2.0,4.0,75,0.00,,,-99.99,3.000000,,2013-04-20 13:52:00,
2013-04-20 08:21:00,32.0,23.0,-100.00,SE,136,0.0,3.0,69,0.00,,,0.00,50.000000,,2013-04-20 14:21:00,
2013-04-20 08:31:00,32.0,23.0,-100.00,SE,136,0.0,3.0,69,0.00,,,0.00,50.000000,,2013-04-20 14:31:00,
2013-04-20 08:42:00,32.0,23.0,-100.00,SE,136,0.0,3.0,69,0.00,,,0.00,50.000000,,2013-04-20 14:42:00,
2013-04-20 08:51:00,32.0,23.0,-100.00,SE,136,0.0,3.0,69,0.00,,,0.00,50.000000,,2013-04-20 14:51:00,
2013-04-20 09:21:00,37.0,22.0,-100.00,NE,43,2.0,5.0,54,0.00,,,-99.99,113.000000,,2013-04-20 15:21:00,
2013-04-20 09:33:00,37.0,22.0,-100.00,NE,43,2.0,5.0,54,0.00,,,-99.99,113.000000,,2013-04-20 15:33:00,
2013-04-20 09:43:00,37.0,22.0,-100.00,NE,43,2.0,5.0,54,0.00,,,-99.99,113.000000,,2013-04-20 15:43:00,
2013-04-20 09:53:00,37.0,22.0,-100.00,NE,43,2.0,5.0,54,0.00,,,-99.99,113.000000,,2013-04-20 15:53:00,
2013-04-20 10:23:00,36.0,23.0,-100.00,WSW,250,5.0,9.0,59,0.00,,,0.00,161.000000,,2013-04-20 16:23:00,
2013-04-20 10:32:00,36.0,23.0,-100.00,WSW,250,5.0,9.0,59,0.00,,,0.00,161.000000,,2013-04-20 16:32:00,
2013-04-20 10:42:00,36.0,23.0,-100.00,WSW,250,5.0,9.0,59,0.00,,,0.00,161.000000,,2013-04-20 16:42:00,
2013-04-20 10:52:00,36.0,23.0,-100.00,WSW,250,5.0,9.0,59,0.00,,,0.00,161.000000,,2013-04-20 16:52:00,
2013-04-20 11:22:00,33.0,29.0,-100.00,West,260,3.0,9.0,86,0.00,,,0.00,215.000000,,2013-04-20 17:22:00,
2013-04-20 11:33:00,33.0,29.0,-100.00,West,260,3.0,9.0,86,0.00,,,0.00,215.000000,,2013-04-20 17:33:00,
2013-04-20 11:42:00,33.0,29.0,-100.00,West,260,3.0,9.0,86,0.00,,,0.00,215.000000,,2013-04-20 17:42:00,
2013-04-20 11:52:00,33.0,29.0,-100.00,West,260,3.0,9.0,86,0.00,,,0.00,215.000000,,2013-04-20 17:52:00,
2013-04-20 12:22:00,37.0,32.0,-100.00,WSW,253,2.0,7.0,81,0.03,,,0.03,324.000000,,2013-04-20 18:22:00,
2013-04-20 12:32:00,37.0,32.0,-100.00,WSW,253,2.0,7.0,81,0.03,,,0.03,324.000000,,2013-04-20 18:32:00,
2013-04-20 12:41:00,37.0,32.0,-100.00,WSW,253,2.0,7.0,81,0.03,,,0.03,324.000000,,2013-04-20 18:41:00,
2013-04-20 12:52:00,37.0,32.0,-100.00,WSW,253,2.0,7.0,81,0.03,,,0.03,324.000000,,2013-04-20 18:52:00,
2013-04-20 13:21:00,42.0,30.0,-100.00,WNW,288,4.0,9.0,63,0.00,,,0.03,641.000000,,2013-04-20 19:21:00,
2013-04-20 13:32:00,42.0,30.0,-100.00,WNW,288,4.0,9.0,63,0.00,,,0.03,641.000000,,2013-04-20 19:32:00,
2013-04-20 13:42:00,42.0,30.0,-100.00,WNW,288,4.0,9.0,63,0.00,,,0.03,641.000000,,2013-04-20 19:42:00,
2013-04-20 13:52:00,42.0,30.0,-100.00,WNW,288,4.0,9.0,63,0.00,,,0.03,641.000000,,2013-04-20 19:52:00,
2013-04-20 14:21:00,43.0,28.0,-100.00,West,280,6.0,13.0,55,0.00,,,0.03,569.000000,,2013-04-20 20:21:00,
2013-04-20 14:32:00,43.0,28.0,-100.00,West,280,6.0,13.0,55,0.00,,,0.03,569.000000,,2013-04-20 20:32:00,
2013-04-20 14:42:00,43.0,28.0,-100.00,West,280,6.0,13.0,55,0.00,,,0.03,569.000000,,2013-04-20 20:42:00,
2013-04-20 14:51:00,43.0,28.0,-100.00,West,280,6.0,13.0,55,0.00,,,0.03,569.000000,,2013-04-20 20:51:00,
2013-04-20 15:21:00,45.0,29.0,-100.00,WSW,242,5.0,9.0,54,0.00,,,0.03,510.000000,,2013-04-20 21:21:00,
2013-04-20 15:32:00,45.0,29.0,-100.00,WSW,242,5.0,9.0,54,0.00,,,0.03,510.000000,,2013-04-20 21:32:00,
2013-04-20 15:43:00,45.0,29.0,-100.00,WSW,242,5.0,9.0,54,0.00,,,0.03,510.000000,,2013-04-20 21:43:00,
2013-04-20 15:52:00,45.0,29.0,-100.00,WSW,242,5.0,9.0,54,0.00,,,0.03,510.000000,,2013-04-20 21:52:00,
2013-04-20 16:22:00,47.0,26.0,-100.00,West,261,7.0,13.0,43,0.00,,,0.03,923.000000,,2013-04-20 22:22:00,
2013-04-20 16:32:00,47.0,26.0,-100.00,West,261,7.0,13.0,43,0.00,,,0.03,923.000000,,2013-04-20 22:32:00,
2013-04-20 16:42:00,47.0,26.0,-100.00,West,261,7.0,13.0,43,0.00,,,0.03,923.000000,,2013-04-20 22:42:00,
2013-04-20 16:52:00,47.0,26.0,-100.00,West,261,7.0,13.0,43,0.00,,,0.03,923.000000,,2013-04-20 22:52:00,
2013-04-20 17:22:00,48.0,28.0,-100.00,NW,315,5.0,13.0,46,0.00,,,0.03,560.000000,,2013-04-20 23:22:00,
2013-04-20 17:32:00,48.0,28.0,-100.00,NW,315,5.0,13.0,46,0.00,,,0.03,560.000000,,2013-04-20 23:32:00,
2013-04-20 17:41:00,48.0,28.0,-100.00,NW,315,5.0,13.0,46,0.00,,,0.03,560.000000,,2013-04-20 23:41:00,
2013-04-20 17:52:00,48.0,28.0,-100.00,NW,315,5.0,13.0,46,0.00,,,0.03,560.000000,,2013-04-20 23:52:00,
2013-04-20 18:21:00,44.0,26.0,-100.00,West,259,5.0,12.0,49,0.00,,,0.03,387.000000,,2013-04-21 00:21:00,
2013-04-20 18:32:00,44.0,26.0,-100.00,West,259,5.0,12.0,49,0.00,,,0.03,387.000000,,2013-04-21 00:32:00,
2013-04-20 18:42:00,44.0,26.0,-100.00,West,259,5.0,12.0,49,0.00,,,0.03,387.000000,,2013-04-21 00:42:00,
2013-04-20 18:52:00,44.0,26.0,-100.00,West,259,5.0,12.0,49,0.00,,,0.03,387.000000,,2013-04-21 00:52:00,
2013-04-20 19:21:00,43.0,28.0,-100.00,SW,224,2.0,11.0,56,0.00,,,0.03,146.000000,,2013-04-21 01:21:00,
2013-04-20 19:31:00,43.0,28.0,-100.00,SW,224,2.0,11.0,56,0.00,,,0.03,146.000000,,2013-04-21 01:31:00,
2013-04-20 19:41:00,43.0,28.0,-100.00,SW,224,2.0,11.0,56,0.00,,,0.03,146.000000,,2013-04-21 01:41:00,
2013-04-20 19:52:00,43.0,28.0,-100.00,SW,224,2.0,11.0,56,0.00,,,0.03,146.000000,,2013-04-21 01:52:00,
2013-04-20 21:21:00,34.0,26.0,-100.00,South,191,1.0,5.0,72,0.00,,,0.03,1.000000,,2013-04-21 03:21:00,
2013-04-20 21:32:00,34.0,26.0,-100.00,South,191,1.0,5.0,72,0.00,,,0.03,1.000000,,2013-04-21 03:32:00,
2013-04-20 21:42:00,34.0,26.0,-100.00,South,191,1.0,5.0,72,0.00,,,0.03,1.000000,,2013-04-21 03:42:00,
2013-04-20 21:52:00,34.0,26.0,-100.00,South,191,1.0,5.0,72,0.00,,,0.03,1.000000,,2013-04-21 03:52:00,
2013-04-20 22:22:00,32.0,26.0,-100.00,SE,135,1.0,3.0,78,0.00,,,0.03,1.000000,,2013-04-21 04:22:00,
2013-04-20 22:33:00,32.0,26.0,-100.00,SE,135,1.0,3.0,78,0.00,,,0.03,1.000000,,2013-04-21 04:33:00,
2013-04-20 22:42:00,32.0,26.0,-100.00,SE,135,1.0,3.0,78,0.00,,,0.03,1.000000,,2013-04-21 04:42:00,
2013-04-20 22:52:00,32.0,26.0,-100.00,SE,135,1.0,3.0,78,0.00,,,0.03,1.000000,,2013-04-21 04:52:00,
2013-04-20 23:22:00,33.0,28.0,-100.00,ENE,75,2.0,4.0,80,0.00,,,0.03,1.000000,,2013-04-21 05:22:00,
2013-04-20 23:32:00,33.0,28.0,-100.00,ENE,75,2.0,4.0,80,0.00,,,0.03,1.000000,,2013-04-21 05:32:00,
2013-04-20 23:42:00,33.0,28.0,-100.00,ENE,75,2.0,4.0,80,0.00,,,0.03,1.000000,,2013-04-21 05:42:00,
2013-04-20 23:52:00,33.0,28.0,-100.00,ENE,75,2.0,4.0,80,0.00,,,0.03,1.000000,,2013-04-21 05:52:00,